sensor_id;sensor_type;location;lat;lon;timestamp;temperature;humidity
37658;DHT22;23500;53.268;8.308;2023-04-24T00:00:06;18.80;69.20
37658;DHT22;23500;53.268;8.308;2023-04-24T00:02:32;18.70;69.00
37658;DHT22;23500;53.268;8.308;2023-04-24T00:04:58;18.70;69.20
37658;DHT22;23500;53.268;8.308;2023-04-24T00:07:29;18.70;69.30
37658;DHT22;23500;53.268;8.308;2023-04-24T00:09:54;18.70;69.30
37658;DHT22;23500;53.268;8.308;2023-04-24T00:12:20;18.70;69.20
37658;DHT22;23500;53.268;8.308;2023-04-24T00:14:46;18.70;69.30
37658;DHT22;23500;53.268;8.308;2023-04-24T00:17:11;18.70;69.30
37658;DHT22;23500;53.268;8.308;2023-04-24T00:19:37;18.70;69.40
37658;DHT22;23500;53.268;8.308;2023-04-24T00:22:03;18.70;69.40
37658;DHT22;23500;53.268;8.308;2023-04-24T00:24:29;18.70;69.40
37658;DHT22;23500;53.268;8.308;2023-04-24T00:26:54;18.70;69.30
37658;DHT22;23500;53.268;8.308;2023-04-24T00:29:20;18.70;69.30
37658;DHT22;23500;53.268;8.308;2023-04-24T00:31:46;18.70;69.30
37658;DHT22;23500;53.268;8.308;2023-04-24T00:34:11;18.70;69.40
37658;DHT22;23500;53.268;8.308;2023-04-24T00:36:37;18.70;69.30
37658;DHT22;23500;53.268;8.308;2023-04-24T00:39:03;18.70;69.40
37658;DHT22;23500;53.268;8.308;2023-04-24T00:41:29;18.70;69.30
37658;DHT22;23500;53.268;8.308;2023-04-24T00:43:55;18.70;69.50
37658;DHT22;23500;53.268;8.308;2023-04-24T00:46:21;18.70;69.30
37658;DHT22;23500;53.268;8.308;2023-04-24T00:48:47;18.70;69.50
37658;DHT22;23500;53.268;8.308;2023-04-24T00:51:13;18.70;69.30
37658;DHT22;23500;53.268;8.308;2023-04-24T00:53:38;18.70;69.20
37658;DHT22;23500;53.268;8.308;2023-04-24T00:56:04;18.60;68.90
37658;DHT22;23500;53.268;8.308;2023-04-24T00:58:31;18.60;69.40
37658;DHT22;23500;53.268;8.308;2023-04-24T01:00:57;18.60;69.20
37658;DHT22;23500;53.268;8.308;2023-04-24T01:03:26;18.60;68.90
37658;DHT22;23500;53.268;8.308;2023-04-24T01:05:54;18.60;69.10
37658;DHT22;23500;53.268;8.308;2023-04-24T01:08:23;18.60;68.80
37658;DHT22;23500;53.268;8.308;2023-04-24T01:10:51;18.60;68.60
37658;DHT22;23500;53.268;8.308;2023-04-24T01:13:20;18.60;68.80
37658;DHT22;23500;53.268;8.308;2023-04-24T01:15:46;18.60;68.80
37658;DHT22;23500;53.268;8.308;2023-04-24T01:18:13;18.60;68.80
37658;DHT22;23500;53.268;8.308;2023-04-24T01:20:40;18.60;69.00
37658;DHT22;23500;53.268;8.308;2023-04-24T01:23:07;18.60;69.00
37658;DHT22;23500;53.268;8.308;2023-04-24T01:25:33;18.60;69.10
37658;DHT22;23500;53.268;8.308;2023-04-24T01:27:59;18.60;69.00
37658;DHT22;23500;53.268;8.308;2023-04-24T01:30:26;18.60;69.00
37658;DHT22;23500;53.268;8.308;2023-04-24T01:32:52;18.60;69.00
37658;DHT22;23500;53.268;8.308;2023-04-24T01:35:19;18.60;69.00
37658;DHT22;23500;53.268;8.308;2023-04-24T01:37:45;18.60;68.90
37658;DHT22;23500;53.268;8.308;2023-04-24T01:40:11;18.60;69.10
37658;DHT22;23500;53.268;8.308;2023-04-24T01:42:37;18.60;69.70
37658;DHT22;23500;53.268;8.308;2023-04-24T01:45:04;18.60;69.10
37658;DHT22;23500;53.268;8.308;2023-04-24T01:47:31;18.60;68.80
37658;DHT22;23500;53.268;8.308;2023-04-24T01:49:57;18.60;69.00
37658;DHT22;23500;53.268;8.308;2023-04-24T01:52:23;18.50;68.90
37658;DHT22;23500;53.268;8.308;2023-04-24T01:54:49;18.50;68.90
37658;DHT22;23500;53.268;8.308;2023-04-24T01:57:14;18.50;68.90
37658;DHT22;23500;53.268;8.308;2023-04-24T01:59:41;18.50;69.00
37658;DHT22;23500;53.268;8.308;2023-04-24T02:02:07;18.50;69.00
37658;DHT22;23500;53.268;8.308;2023-04-24T02:04:32;18.50;69.00
37658;DHT22;23500;53.268;8.308;2023-04-24T02:06:58;18.50;69.00
37658;DHT22;23500;53.268;8.308;2023-04-24T02:09:24;18.50;68.70
37658;DHT22;23500;53.268;8.308;2023-04-24T02:11:50;18.50;68.40
37658;DHT22;23500;53.268;8.308;2023-04-24T02:14:16;18.50;68.70
37658;DHT22;23500;53.268;8.308;2023-04-24T02:16:42;18.50;68.50
37658;DHT22;23500;53.268;8.308;2023-04-24T02:19:07;18.50;68.80
37658;DHT22;23500;53.268;8.308;2023-04-24T02:21:33;18.50;68.90
37658;DHT22;23500;53.268;8.308;2023-04-24T02:23:59;18.50;68.90
37658;DHT22;23500;53.268;8.308;2023-04-24T02:26:25;18.50;69.10
37658;DHT22;23500;53.268;8.308;2023-04-24T02:28:50;18.50;68.80
37658;DHT22;23500;53.268;8.308;2023-04-24T02:31:16;18.40;69.10
37658;DHT22;23500;53.268;8.308;2023-04-24T02:33:42;18.50;69.10
37658;DHT22;23500;53.268;8.308;2023-04-24T02:36:07;18.50;69.10
37658;DHT22;23500;53.268;8.308;2023-04-24T02:38:33;18.50;69.20
37658;DHT22;23500;53.268;8.308;2023-04-24T02:40:58;18.50;69.40
37658;DHT22;23500;53.268;8.308;2023-04-24T02:43:26;18.40;69.20
37658;DHT22;23500;53.268;8.308;2023-04-24T02:45:51;18.40;69.30
37658;DHT22;23500;53.268;8.308;2023-04-24T02:48:17;18.40;69.10
37658;DHT22;23500;53.268;8.308;2023-04-24T02:50:43;18.40;68.90
37658;DHT22;23500;53.268;8.308;2023-04-24T02:53:09;18.40;69.00
37658;DHT22;23500;53.268;8.308;2023-04-24T02:55:35;18.40;69.00
37658;DHT22;23500;53.268;8.308;2023-04-24T02:58:00;18.40;69.20
37658;DHT22;23500;53.268;8.308;2023-04-24T03:00:26;18.40;69.10
37658;DHT22;23500;53.268;8.308;2023-04-24T03:02:52;18.40;68.80
37658;DHT22;23500;53.268;8.308;2023-04-24T03:05:18;18.40;69.30
37658;DHT22;23500;53.268;8.308;2023-04-24T03:07:44;18.40;69.30
37658;DHT22;23500;53.268;8.308;2023-04-24T03:10:11;18.40;69.50
37658;DHT22;23500;53.268;8.308;2023-04-24T03:12:36;18.40;69.60
37658;DHT22;23500;53.268;8.308;2023-04-24T03:15:02;18.40;69.20
37658;DHT22;23500;53.268;8.308;2023-04-24T03:17:28;18.40;69.30
37658;DHT22;23500;53.268;8.308;2023-04-24T03:19:53;18.40;69.40
37658;DHT22;23500;53.268;8.308;2023-04-24T03:22:19;18.30;69.30
37658;DHT22;23500;53.268;8.308;2023-04-24T03:24:45;18.30;69.30
37658;DHT22;23500;53.268;8.308;2023-04-24T03:27:10;18.30;69.50
37658;DHT22;23500;53.268;8.308;2023-04-24T03:29:36;18.30;69.40
37658;DHT22;23500;53.268;8.308;2023-04-24T03:32:01;18.30;69.20
37658;DHT22;23500;53.268;8.308;2023-04-24T03:34:27;18.30;69.40
37658;DHT22;23500;53.268;8.308;2023-04-24T03:36:53;18.30;69.20
37658;DHT22;23500;53.268;8.308;2023-04-24T03:39:19;18.30;69.40
37658;DHT22;23500;53.268;8.308;2023-04-24T03:41:44;18.30;69.30
37658;DHT22;23500;53.268;8.308;2023-04-24T03:44:10;18.30;69.40
37658;DHT22;23500;53.268;8.308;2023-04-24T03:46:35;18.30;69.20
37658;DHT22;23500;53.268;8.308;2023-04-24T03:49:01;18.30;69.40
37658;DHT22;23500;53.268;8.308;2023-04-24T03:51:27;18.30;69.20
37658;DHT22;23500;53.268;8.308;2023-04-24T03:53:56;18.30;69.30
37658;DHT22;23500;53.268;8.308;2023-04-24T03:56:21;18.30;69.20
37658;DHT22;23500;53.268;8.308;2023-04-24T03:58:47;18.30;69.20
37658;DHT22;23500;53.268;8.308;2023-04-24T04:01:13;18.30;69.30
37658;DHT22;23500;53.268;8.308;2023-04-24T04:03:41;18.30;69.10
37658;DHT22;23500;53.268;8.308;2023-04-24T04:06:06;18.30;69.20
37658;DHT22;23500;53.268;8.308;2023-04-24T04:08:32;18.30;69.20
37658;DHT22;23500;53.268;8.308;2023-04-24T04:10:58;18.30;69.10
37658;DHT22;23500;53.268;8.308;2023-04-24T04:13:23;18.30;69.80
37658;DHT22;23500;53.268;8.308;2023-04-24T04:15:49;18.30;70.00
37658;DHT22;23500;53.268;8.308;2023-04-24T04:18:15;18.30;70.20
37658;DHT22;23500;53.268;8.308;2023-04-24T04:20:41;18.30;70.10
37658;DHT22;23500;53.268;8.308;2023-04-24T04:23:06;18.30;70.10
37658;DHT22;23500;53.268;8.308;2023-04-24T04:25:32;18.30;70.20
37658;DHT22;23500;53.268;8.308;2023-04-24T04:27:58;18.30;70.10
37658;DHT22;23500;53.268;8.308;2023-04-24T04:30:25;18.30;70.40
37658;DHT22;23500;53.268;8.308;2023-04-24T04:32:51;18.30;70.40
37658;DHT22;23500;53.268;8.308;2023-04-24T04:35:17;18.30;70.70
37658;DHT22;23500;53.268;8.308;2023-04-24T04:37:42;18.30;70.90
37658;DHT22;23500;53.268;8.308;2023-04-24T04:40:08;18.40;71.10
37658;DHT22;23500;53.268;8.308;2023-04-24T04:42:37;18.40;71.00
37658;DHT22;23500;53.268;8.308;2023-04-24T04:45:08;18.40;71.00
37658;DHT22;23500;53.268;8.308;2023-04-24T04:47:37;18.40;70.90
37658;DHT22;23500;53.268;8.308;2023-04-24T04:50:03;18.40;70.90
37658;DHT22;23500;53.268;8.308;2023-04-24T04:52:30;18.40;71.10
37658;DHT22;23500;53.268;8.308;2023-04-24T04:54:56;18.40;71.00
37658;DHT22;23500;53.268;8.308;2023-04-24T04:57:22;18.40;71.00
37658;DHT22;23500;53.268;8.308;2023-04-24T04:59:48;18.40;71.10
37658;DHT22;23500;53.268;8.308;2023-04-24T05:02:13;18.40;71.10
37658;DHT22;23500;53.268;8.308;2023-04-24T05:04:39;18.50;71.10
37658;DHT22;23500;53.268;8.308;2023-04-24T05:07:05;18.50;71.00
37658;DHT22;23500;53.268;8.308;2023-04-24T05:09:31;18.50;71.30
37658;DHT22;23500;53.268;8.308;2023-04-24T05:11:57;18.50;70.00
37658;DHT22;23500;53.268;8.308;2023-04-24T05:14:22;18.50;70.10
37658;DHT22;23500;53.268;8.308;2023-04-24T05:16:48;18.50;69.50
37658;DHT22;23500;53.268;8.308;2023-04-24T05:19:14;18.50;69.80
37658;DHT22;23500;53.268;8.308;2023-04-24T05:21:42;18.50;69.60
37658;DHT22;23500;53.268;8.308;2023-04-24T05:24:08;18.50;69.20
37658;DHT22;23500;53.268;8.308;2023-04-24T05:26:34;18.50;70.40
37658;DHT22;23500;53.268;8.308;2023-04-24T05:29:01;18.60;71.10
37658;DHT22;23500;53.268;8.308;2023-04-24T05:31:27;18.60;71.20
37658;DHT22;23500;53.268;8.308;2023-04-24T05:33:53;18.60;71.10
37658;DHT22;23500;53.268;8.308;2023-04-24T05:36:18;18.60;71.20
37658;DHT22;23500;53.268;8.308;2023-04-24T05:38:44;18.60;71.20
37658;DHT22;23500;53.268;8.308;2023-04-24T05:41:10;18.60;71.20
37658;DHT22;23500;53.268;8.308;2023-04-24T05:43:35;18.60;71.10
37658;DHT22;23500;53.268;8.308;2023-04-24T05:46:01;18.50;71.10
37658;DHT22;23500;53.268;8.308;2023-04-24T05:48:26;18.50;71.10
37658;DHT22;23500;53.268;8.308;2023-04-24T05:50:52;18.60;71.10
37658;DHT22;23500;53.268;8.308;2023-04-24T05:53:18;18.50;71.00
37658;DHT22;23500;53.268;8.308;2023-04-24T05:55:44;18.60;71.10
37658;DHT22;23500;53.268;8.308;2023-04-24T05:58:11;18.50;70.90
37658;DHT22;23500;53.268;8.308;2023-04-24T06:00:37;18.50;70.90
37658;DHT22;23500;53.268;8.308;2023-04-24T06:03:03;18.60;70.90
37658;DHT22;23500;53.268;8.308;2023-04-24T06:05:29;18.50;70.80
37658;DHT22;23500;53.268;8.308;2023-04-24T06:07:55;18.60;70.90
37658;DHT22;23500;53.268;8.308;2023-04-24T06:10:21;18.60;70.70
37658;DHT22;23500;53.268;8.308;2023-04-24T06:12:46;18.60;70.60
37658;DHT22;23500;53.268;8.308;2023-04-24T06:15:12;18.60;70.60
37658;DHT22;23500;53.268;8.308;2023-04-24T06:17:38;18.60;70.60
37658;DHT22;23500;53.268;8.308;2023-04-24T06:20:04;18.60;70.50
37658;DHT22;23500;53.268;8.308;2023-04-24T06:22:31;18.60;70.50
37658;DHT22;23500;53.268;8.308;2023-04-24T06:24:56;18.60;70.50
37658;DHT22;23500;53.268;8.308;2023-04-24T06:27:22;18.60;70.40
37658;DHT22;23500;53.268;8.308;2023-04-24T06:29:48;18.60;70.40
37658;DHT22;23500;53.268;8.308;2023-04-24T06:32:23;18.60;70.40
37658;DHT22;23500;53.268;8.308;2023-04-24T06:34:50;18.60;70.30
37658;DHT22;23500;53.268;8.308;2023-04-24T06:37:16;18.60;70.30
37658;DHT22;23500;53.268;8.308;2023-04-24T06:39:42;18.60;70.30
37658;DHT22;23500;53.268;8.308;2023-04-24T06:42:08;18.60;70.20
37658;DHT22;23500;53.268;8.308;2023-04-24T06:44:35;18.60;70.20
37658;DHT22;23500;53.268;8.308;2023-04-24T06:47:09;18.70;70.30
37658;DHT22;23500;53.268;8.308;2023-04-24T06:49:38;18.70;70.20
37658;DHT22;23500;53.268;8.308;2023-04-24T06:52:04;18.60;70.20
37658;DHT22;23500;53.268;8.308;2023-04-24T06:54:30;18.60;70.10
37658;DHT22;23500;53.268;8.308;2023-04-24T06:56:56;18.70;70.20
37658;DHT22;23500;53.268;8.308;2023-04-24T06:59:23;18.70;70.30
37658;DHT22;23500;53.268;8.308;2023-04-24T07:01:49;18.80;70.40
37658;DHT22;23500;53.268;8.308;2023-04-24T07:04:16;18.80;70.30
37658;DHT22;23500;53.268;8.308;2023-04-24T07:06:43;18.90;70.30
37658;DHT22;23500;53.268;8.308;2023-04-24T07:09:09;18.80;70.40
37658;DHT22;23500;53.268;8.308;2023-04-24T07:11:35;18.90;70.40
37658;DHT22;23500;53.268;8.308;2023-04-24T07:14:02;18.80;70.40
37658;DHT22;23500;53.268;8.308;2023-04-24T07:16:28;18.90;70.40
37658;DHT22;23500;53.268;8.308;2023-04-24T07:18:53;18.90;70.30
37658;DHT22;23500;53.268;8.308;2023-04-24T07:21:19;18.90;70.00
37658;DHT22;23500;53.268;8.308;2023-04-24T07:23:45;19.00;69.80
37658;DHT22;23500;53.268;8.308;2023-04-24T07:26:10;19.10;69.60
37658;DHT22;23500;53.268;8.308;2023-04-24T07:28:36;19.10;69.30
37658;DHT22;23500;53.268;8.308;2023-04-24T07:31:02;19.20;69.20
37658;DHT22;23500;53.268;8.308;2023-04-24T07:33:27;19.20;69.00
37658;DHT22;23500;53.268;8.308;2023-04-24T07:35:53;19.20;69.00
37658;DHT22;23500;53.268;8.308;2023-04-24T07:38:19;19.20;69.10
37658;DHT22;23500;53.268;8.308;2023-04-24T07:40:47;19.10;69.20
37658;DHT22;23500;53.268;8.308;2023-04-24T07:43:13;19.10;69.30
37658;DHT22;23500;53.268;8.308;2023-04-24T07:45:39;19.10;69.40
37658;DHT22;23500;53.268;8.308;2023-04-24T07:48:05;19.10;69.40
37658;DHT22;23500;53.268;8.308;2023-04-24T07:50:31;19.00;69.40
37658;DHT22;23500;53.268;8.308;2023-04-24T07:52:57;19.00;69.40
37658;DHT22;23500;53.268;8.308;2023-04-24T07:55:23;19.00;69.40
37658;DHT22;23500;53.268;8.308;2023-04-24T07:57:49;19.00;69.40
37658;DHT22;23500;53.268;8.308;2023-04-24T08:00:15;19.00;69.50
37658;DHT22;23500;53.268;8.308;2023-04-24T08:02:41;19.00;69.50
37658;DHT22;23500;53.268;8.308;2023-04-24T08:05:07;19.00;69.50
37658;DHT22;23500;53.268;8.308;2023-04-24T08:07:33;19.00;69.50
37658;DHT22;23500;53.268;8.308;2023-04-24T08:09:58;19.00;69.50
37658;DHT22;23500;53.268;8.308;2023-04-24T08:12:25;19.00;69.40
37658;DHT22;23500;53.268;8.308;2023-04-24T08:14:50;19.00;69.30
37658;DHT22;23500;53.268;8.308;2023-04-24T08:17:17;19.10;69.30
37658;DHT22;23500;53.268;8.308;2023-04-24T08:19:42;19.10;69.20
37658;DHT22;23500;53.268;8.308;2023-04-24T08:22:13;19.10;69.10
37658;DHT22;23500;53.268;8.308;2023-04-24T08:24:39;19.10;68.90
37658;DHT22;23500;53.268;8.308;2023-04-24T08:27:05;19.20;68.80
37658;DHT22;23500;53.268;8.308;2023-04-24T08:29:31;19.20;68.60
37658;DHT22;23500;53.268;8.308;2023-04-24T08:31:57;19.30;68.50
37658;DHT22;23500;53.268;8.308;2023-04-24T08:34:23;19.30;68.40
37658;DHT22;23500;53.268;8.308;2023-04-24T08:36:49;19.30;68.40
37658;DHT22;23500;53.268;8.308;2023-04-24T08:39:15;19.30;68.40
37658;DHT22;23500;53.268;8.308;2023-04-24T08:41:43;19.30;68.40
37658;DHT22;23500;53.268;8.308;2023-04-24T08:44:09;19.30;68.40
37658;DHT22;23500;53.268;8.308;2023-04-24T08:46:36;19.30;68.40
37658;DHT22;23500;53.268;8.308;2023-04-24T08:49:03;19.30;68.40
37658;DHT22;23500;53.268;8.308;2023-04-24T08:51:33;19.30;68.40
37658;DHT22;23500;53.268;8.308;2023-04-24T08:53:59;19.20;68.50
37658;DHT22;23500;53.268;8.308;2023-04-24T08:56:26;19.20;68.50
37658;DHT22;23500;53.268;8.308;2023-04-24T08:58:54;19.20;68.60
37658;DHT22;23500;53.268;8.308;2023-04-24T09:01:20;19.20;68.70
37658;DHT22;23500;53.268;8.308;2023-04-24T09:03:49;19.10;68.60
37658;DHT22;23500;53.268;8.308;2023-04-24T09:06:16;19.10;68.80
37658;DHT22;23500;53.268;8.308;2023-04-24T09:08:43;19.10;68.80
37658;DHT22;23500;53.268;8.308;2023-04-24T09:11:11;19.10;68.90
37658;DHT22;23500;53.268;8.308;2023-04-24T09:13:37;19.10;68.90
37658;DHT22;23500;53.268;8.308;2023-04-24T09:16:03;19.10;68.90
37658;DHT22;23500;53.268;8.308;2023-04-24T09:18:29;19.10;69.00
37658;DHT22;23500;53.268;8.308;2023-04-24T09:21:08;19.10;69.00
37658;DHT22;23500;53.268;8.308;2023-04-24T09:23:34;19.10;69.00
37658;DHT22;23500;53.268;8.308;2023-04-24T09:26:01;19.10;69.00
37658;DHT22;23500;53.268;8.308;2023-04-24T09:28:32;19.00;69.00
37658;DHT22;23500;53.268;8.308;2023-04-24T09:33:32;19.00;69.00
37658;DHT22;23500;53.268;8.308;2023-04-24T09:35:58;19.00;69.00
37658;DHT22;23500;53.268;8.308;2023-04-24T09:38:35;19.00;69.00
37658;DHT22;23500;53.268;8.308;2023-04-24T09:41:06;19.00;69.00
37658;DHT22;23500;53.268;8.308;2023-04-24T09:43:32;19.00;69.00
37658;DHT22;23500;53.268;8.308;2023-04-24T09:46:00;19.00;69.10
37658;DHT22;23500;53.268;8.308;2023-04-24T09:48:36;19.00;69.10
37658;DHT22;23500;53.268;8.308;2023-04-24T09:51:04;19.00;69.10
37658;DHT22;23500;53.268;8.308;2023-04-24T09:53:32;19.00;69.10
37658;DHT22;23500;53.268;8.308;2023-04-24T09:56:10;19.00;69.00
37658;DHT22;23500;53.268;8.308;2023-04-24T09:58:37;19.00;69.10
37658;DHT22;23500;53.268;8.308;2023-04-24T10:01:03;19.00;68.90
37658;DHT22;23500;53.268;8.308;2023-04-24T10:03:30;19.10;68.80
37658;DHT22;23500;53.268;8.308;2023-04-24T10:06:03;19.10;68.70
37658;DHT22;23500;53.268;8.308;2023-04-24T10:08:34;19.10;68.60
37658;DHT22;23500;53.268;8.308;2023-04-24T10:11:01;19.20;68.50
37658;DHT22;23500;53.268;8.308;2023-04-24T10:13:28;19.20;68.50
37658;DHT22;23500;53.268;8.308;2023-04-24T10:15:54;19.20;68.50
37658;DHT22;23500;53.268;8.308;2023-04-24T10:18:20;19.20;68.40
37658;DHT22;23500;53.268;8.308;2023-04-24T10:20:47;19.20;68.50
37658;DHT22;23500;53.268;8.308;2023-04-24T10:23:13;19.10;68.40
37658;DHT22;23500;53.268;8.308;2023-04-24T10:25:39;19.20;68.50
37658;DHT22;23500;53.268;8.308;2023-04-24T10:28:05;19.10;68.40
37658;DHT22;23500;53.268;8.308;2023-04-24T10:30:33;19.20;68.50
37658;DHT22;23500;53.268;8.308;2023-04-24T10:33:06;19.20;68.50
37658;DHT22;23500;53.268;8.308;2023-04-24T10:35:36;19.20;68.30
37658;DHT22;23500;53.268;8.308;2023-04-24T10:38:06;19.20;68.20
37658;DHT22;23500;53.268;8.308;2023-04-24T10:40:35;19.30;68.10
37658;DHT22;23500;53.268;8.308;2023-04-24T10:43:05;19.30;68.00
37658;DHT22;23500;53.268;8.308;2023-04-24T10:45:33;19.30;67.90
37658;DHT22;23500;53.268;8.308;2023-04-24T10:48:06;19.30;67.80
37658;DHT22;23500;53.268;8.308;2023-04-24T10:50:47;19.30;67.80
37658;DHT22;23500;53.268;8.308;2023-04-24T10:53:24;19.30;67.90
37658;DHT22;23500;53.268;8.308;2023-04-24T10:56:06;19.30;67.90
37658;DHT22;23500;53.268;8.308;2023-04-24T10:58:43;19.30;68.00
37658;DHT22;23500;53.268;8.308;2023-04-24T11:01:29;19.30;68.10
37658;DHT22;23500;53.268;8.308;2023-04-24T11:04:00;19.30;68.10
37658;DHT22;23500;53.268;8.308;2023-04-24T11:06:32;19.30;68.20
37658;DHT22;23500;53.268;8.308;2023-04-24T11:09:09;19.30;68.20
37658;DHT22;23500;53.268;8.308;2023-04-24T11:11:37;19.30;68.30
37658;DHT22;23500;53.268;8.308;2023-04-24T11:14:06;19.30;69.00
37658;DHT22;23500;53.268;8.308;2023-04-24T11:16:44;19.30;68.40
37658;DHT22;23500;53.268;8.308;2023-04-24T11:19:22;19.30;69.20
37658;DHT22;23500;53.268;8.308;2023-04-24T11:21:59;19.30;68.60
37658;DHT22;23500;53.268;8.308;2023-04-24T11:32:35;19.30;68.60
37658;DHT22;23500;53.268;8.308;2023-04-24T11:35:13;19.30;68.70
37658;DHT22;23500;53.268;8.308;2023-04-24T11:37:41;19.30;68.30
37658;DHT22;23500;53.268;8.308;2023-04-24T11:40:11;19.30;68.30
37658;DHT22;23500;53.268;8.308;2023-04-24T11:42:39;19.30;68.30
37658;DHT22;23500;53.268;8.308;2023-04-24T11:45:22;19.30;68.40
37658;DHT22;23500;53.268;8.308;2023-04-24T11:47:48;19.20;68.50
37658;DHT22;23500;53.268;8.308;2023-04-24T11:50:16;19.20;68.60
37658;DHT22;23500;53.268;8.308;2023-04-24T11:52:44;19.20;68.70
37658;DHT22;23500;53.268;8.308;2023-04-24T11:57:47;19.10;69.00
37658;DHT22;23500;53.268;8.308;2023-04-24T12:00:21;19.00;69.00
37658;DHT22;23500;53.268;8.308;2023-04-24T12:02:48;19.00;69.10
37658;DHT22;23500;53.268;8.308;2023-04-24T12:05:22;19.00;69.20
37658;DHT22;23500;53.268;8.308;2023-04-24T12:07:48;19.00;69.00
37658;DHT22;23500;53.268;8.308;2023-04-24T12:10:14;19.00;68.90
37658;DHT22;23500;53.268;8.308;2023-04-24T12:12:40;19.00;69.10
37658;DHT22;23500;53.268;8.308;2023-04-24T12:15:09;19.00;69.10
37658;DHT22;23500;53.268;8.308;2023-04-24T12:17:36;19.00;69.10
37658;DHT22;23500;53.268;8.308;2023-04-24T12:20:06;19.00;69.10
37658;DHT22;23500;53.268;8.308;2023-04-24T12:22:55;19.00;69.20
37658;DHT22;23500;53.268;8.308;2023-04-24T12:25:26;19.00;69.30
37658;DHT22;23500;53.268;8.308;2023-04-24T12:27:54;19.00;69.20
37658;DHT22;23500;53.268;8.308;2023-04-24T12:30:21;19.00;69.20
37658;DHT22;23500;53.268;8.308;2023-04-24T12:32:49;18.90;69.20
37658;DHT22;23500;53.268;8.308;2023-04-24T12:35:30;18.90;69.30
37658;DHT22;23500;53.268;8.308;2023-04-24T12:38:08;18.90;69.30
37658;DHT22;23500;53.268;8.308;2023-04-24T12:40:34;18.90;69.40
37658;DHT22;23500;53.268;8.308;2023-04-24T12:43:00;18.90;69.50
37658;DHT22;23500;53.268;8.308;2023-04-24T12:45:26;18.90;69.50
37658;DHT22;23500;53.268;8.308;2023-04-24T12:47:53;18.90;69.50
37658;DHT22;23500;53.268;8.308;2023-04-24T12:50:19;18.90;69.50
37658;DHT22;23500;53.268;8.308;2023-04-24T12:52:44;18.90;69.50
37658;DHT22;23500;53.268;8.308;2023-04-24T12:55:10;18.90;69.50
37658;DHT22;23500;53.268;8.308;2023-04-24T12:57:38;18.90;69.60
37658;DHT22;23500;53.268;8.308;2023-04-24T13:00:05;18.80;69.60
37658;DHT22;23500;53.268;8.308;2023-04-24T13:02:31;18.80;69.60
37658;DHT22;23500;53.268;8.308;2023-04-24T13:04:58;18.80;69.70
37658;DHT22;23500;53.268;8.308;2023-04-24T13:07:24;18.80;69.70
37658;DHT22;23500;53.268;8.308;2023-04-24T13:09:51;18.80;69.80
37658;DHT22;23500;53.268;8.308;2023-04-24T13:12:17;18.80;69.90
37658;DHT22;23500;53.268;8.308;2023-04-24T13:14:44;18.80;69.90
37658;DHT22;23500;53.268;8.308;2023-04-24T13:17:09;18.70;69.90
37658;DHT22;23500;53.268;8.308;2023-04-24T13:19:37;18.80;70.00
37658;DHT22;23500;53.268;8.308;2023-04-24T13:22:04;18.70;70.70
37658;DHT22;23500;53.268;8.308;2023-04-24T13:24:30;18.80;70.00
37658;DHT22;23500;53.268;8.308;2023-04-24T13:26:56;18.80;70.00
37658;DHT22;23500;53.268;8.308;2023-04-24T13:29:22;18.80;70.00
37658;DHT22;23500;53.268;8.308;2023-04-24T13:31:50;18.80;70.00
37658;DHT22;23500;53.268;8.308;2023-04-24T13:34:16;18.80;70.00
37658;DHT22;23500;53.268;8.308;2023-04-24T13:36:42;18.80;69.90
37658;DHT22;23500;53.268;8.308;2023-04-24T13:39:07;18.80;70.00
37658;DHT22;23500;53.268;8.308;2023-04-24T13:41:33;18.80;69.90
37658;DHT22;23500;53.268;8.308;2023-04-24T13:43:59;18.80;69.90
37658;DHT22;23500;53.268;8.308;2023-04-24T13:46:25;18.70;69.90
37658;DHT22;23500;53.268;8.308;2023-04-24T13:48:51;18.70;70.00
37658;DHT22;23500;53.268;8.308;2023-04-24T13:51:17;18.70;70.00
37658;DHT22;23500;53.268;8.308;2023-04-24T13:53:42;18.60;70.00
37658;DHT22;23500;53.268;8.308;2023-04-24T13:56:08;18.70;70.10
37658;DHT22;23500;53.268;8.308;2023-04-24T13:58:35;18.70;70.10
37658;DHT22;23500;53.268;8.308;2023-04-24T14:01:02;18.70;70.10
37658;DHT22;23500;53.268;8.308;2023-04-24T14:03:28;18.70;70.10
37658;DHT22;23500;53.268;8.308;2023-04-24T14:05:54;18.70;70.10
37658;DHT22;23500;53.268;8.308;2023-04-24T14:08:20;18.60;70.00
37658;DHT22;23500;53.268;8.308;2023-04-24T14:10:46;18.60;70.00
37658;DHT22;23500;53.268;8.308;2023-04-24T14:13:12;18.60;70.00
37658;DHT22;23500;53.268;8.308;2023-04-24T14:15:37;18.60;70.00
37658;DHT22;23500;53.268;8.308;2023-04-24T14:18:03;18.60;70.00
37658;DHT22;23500;53.268;8.308;2023-04-24T14:20:29;18.70;70.20
37658;DHT22;23500;53.268;8.308;2023-04-24T14:22:55;18.70;70.50
37658;DHT22;23500;53.268;8.308;2023-04-24T14:25:20;18.70;70.50
37658;DHT22;23500;53.268;8.308;2023-04-24T14:27:48;18.70;70.70
37658;DHT22;23500;53.268;8.308;2023-04-24T14:30:13;18.70;70.60
37658;DHT22;23500;53.268;8.308;2023-04-24T14:32:40;18.80;70.50
37658;DHT22;23500;53.268;8.308;2023-04-24T14:35:07;18.80;70.40
37658;DHT22;23500;53.268;8.308;2023-04-24T14:37:32;18.80;70.30
37658;DHT22;23500;53.268;8.308;2023-04-24T14:39:58;18.80;70.20
37658;DHT22;23500;53.268;8.308;2023-04-24T14:42:24;18.80;70.00
37658;DHT22;23500;53.268;8.308;2023-04-24T14:44:49;18.80;70.00
37658;DHT22;23500;53.268;8.308;2023-04-24T14:47:16;18.80;70.00
37658;DHT22;23500;53.268;8.308;2023-04-24T14:49:43;18.80;70.00
37658;DHT22;23500;53.268;8.308;2023-04-24T14:52:09;18.80;70.00
37658;DHT22;23500;53.268;8.308;2023-04-24T14:54:35;18.70;70.10
37658;DHT22;23500;53.268;8.308;2023-04-24T14:57:01;18.70;70.10
37658;DHT22;23500;53.268;8.308;2023-04-24T14:59:27;18.70;70.00
37658;DHT22;23500;53.268;8.308;2023-04-24T15:01:53;18.70;69.90
37658;DHT22;23500;53.268;8.308;2023-04-24T15:04:26;18.80;69.90
37658;DHT22;23500;53.268;8.308;2023-04-24T15:06:53;18.70;69.80
37658;DHT22;23500;53.268;8.308;2023-04-24T15:09:20;18.70;69.90
37658;DHT22;23500;53.268;8.308;2023-04-24T15:11:46;18.70;70.00
37658;DHT22;23500;53.268;8.308;2023-04-24T15:14:12;18.70;70.10
37658;DHT22;23500;53.268;8.308;2023-04-24T15:16:37;18.70;70.10
37658;DHT22;23500;53.268;8.308;2023-04-24T15:19:03;18.70;70.10
37658;DHT22;23500;53.268;8.308;2023-04-24T15:21:29;18.70;70.10
37658;DHT22;23500;53.268;8.308;2023-04-24T15:23:54;18.70;70.20
37658;DHT22;23500;53.268;8.308;2023-04-24T15:26:22;18.70;70.10
37658;DHT22;23500;53.268;8.308;2023-04-24T15:28:48;18.70;70.10
37658;DHT22;23500;53.268;8.308;2023-04-24T15:31:14;18.70;70.10
37658;DHT22;23500;53.268;8.308;2023-04-24T15:33:40;18.70;70.10
37658;DHT22;23500;53.268;8.308;2023-04-24T15:36:06;18.70;70.00
37658;DHT22;23500;53.268;8.308;2023-04-24T15:38:32;18.70;70.10
37658;DHT22;23500;53.268;8.308;2023-04-24T15:40:57;18.70;70.10